Aviation Digital Data Service (ADDS)

Output produced by METARs form (2047 UTC 29 March 2015)
found at http://aviationweather.gov/adds/metars/
 
KORD 291930Z 2920/3024 20021G30KT P6SM BKN035 
     FM292100 21023G35KT P6SM SCT035 
     FM292300 23018G28KT P6SM SCT025 BKN045 
     TEMPO 2923/2924 5SM -SHRA 
     FM300000 27012G24KT P6SM SCT025 BKN035 
     TEMPO 3000/3001 5SM -SHRA 
     FM300500 28011KT P6SM FEW040